sensor_id;sensor_type;location;lat;lon;timestamp;P1;durP1;ratioP1;P2;durP2;ratioP2
1649;SDS011;822;53.670;8.676;2023-04-06T00:01:01;1.80;;;1.50;;
1649;SDS011;822;53.670;8.676;2023-04-06T00:03:28;3.87;;;1.90;;
1649;SDS011;822;53.670;8.676;2023-04-06T00:05:55;2.10;;;2.00;;
1649;SDS011;822;53.670;8.676;2023-04-06T00:08:23;3.07;;;2.87;;
1649;SDS011;822;53.670;8.676;2023-04-06T00:10:51;2.50;;;2.30;;
1649;SDS011;822;53.670;8.676;2023-04-06T00:13:20;2.20;;;2.10;;
1649;SDS011;822;53.670;8.676;2023-04-06T00:15:47;2.10;;;2.00;;
1649;SDS011;822;53.670;8.676;2023-04-06T00:18:14;1.63;;;1.60;;
1649;SDS011;822;53.670;8.676;2023-04-06T00:20:41;2.53;;;2.20;;
1649;SDS011;822;53.670;8.676;2023-04-06T00:23:08;3.73;;;3.33;;
1649;SDS011;822;53.670;8.676;2023-04-06T00:25:35;2.63;;;2.13;;
1649;SDS011;822;53.670;8.676;2023-04-06T00:28:02;2.83;;;2.60;;
1649;SDS011;822;53.670;8.676;2023-04-06T00:30:31;2.60;;;2.47;;
1649;SDS011;822;53.670;8.676;2023-04-06T00:33:01;5.10;;;3.30;;
1649;SDS011;822;53.670;8.676;2023-04-06T00:35:28;1.93;;;1.83;;
1649;SDS011;822;53.670;8.676;2023-04-06T00:37:55;2.13;;;1.70;;
1649;SDS011;822;53.670;8.676;2023-04-06T00:40:22;2.43;;;2.27;;
1649;SDS011;822;53.670;8.676;2023-04-06T00:42:50;2.60;;;2.50;;
1649;SDS011;822;53.670;8.676;2023-04-06T00:45:20;3.00;;;2.70;;
1649;SDS011;822;53.670;8.676;2023-04-06T00:47:49;2.53;;;2.33;;
1649;SDS011;822;53.670;8.676;2023-04-06T00:50:16;2.93;;;2.70;;
1649;SDS011;822;53.670;8.676;2023-04-06T00:52:44;2.80;;;1.73;;
1649;SDS011;822;53.670;8.676;2023-04-06T00:55:11;3.90;;;1.97;;
1649;SDS011;822;53.670;8.676;2023-04-06T00:57:38;2.77;;;2.57;;
1649;SDS011;822;53.670;8.676;2023-04-06T01:00:08;2.47;;;2.17;;
1649;SDS011;822;53.670;8.676;2023-04-06T01:02:36;3.93;;;3.63;;
1649;SDS011;822;53.670;8.676;2023-04-06T01:05:05;2.17;;;2.07;;
1649;SDS011;822;53.670;8.676;2023-04-06T01:07:33;3.43;;;2.97;;
1649;SDS011;822;53.670;8.676;2023-04-06T01:10:00;3.93;;;2.97;;
1649;SDS011;822;53.670;8.676;2023-04-06T01:12:31;2.30;;;2.07;;
1649;SDS011;822;53.670;8.676;2023-04-06T01:14:58;2.43;;;2.13;;
1649;SDS011;822;53.670;8.676;2023-04-06T01:17:25;2.07;;;1.90;;
1649;SDS011;822;53.670;8.676;2023-04-06T01:19:53;4.93;;;3.20;;
1649;SDS011;822;53.670;8.676;2023-04-06T01:22:22;2.37;;;2.17;;
1649;SDS011;822;53.670;8.676;2023-04-06T01:24:50;4.70;;;2.77;;
1649;SDS011;822;53.670;8.676;2023-04-06T01:27:18;2.60;;;2.40;;
1649;SDS011;822;53.670;8.676;2023-04-06T01:29:45;1.77;;;1.67;;
1649;SDS011;822;53.670;8.676;2023-04-06T01:32:12;2.87;;;2.67;;
1649;SDS011;822;53.670;8.676;2023-04-06T01:34:39;2.63;;;2.43;;
1649;SDS011;822;53.670;8.676;2023-04-06T01:37:06;8.17;;;3.43;;
1649;SDS011;822;53.670;8.676;2023-04-06T01:39:35;1.90;;;1.80;;
1649;SDS011;822;53.670;8.676;2023-04-06T01:42:02;2.23;;;2.03;;
1649;SDS011;822;53.670;8.676;2023-04-06T01:44:31;3.60;;;3.30;;
1649;SDS011;822;53.670;8.676;2023-04-06T01:46:58;4.20;;;3.60;;
1649;SDS011;822;53.670;8.676;2023-04-06T01:49:25;2.90;;;2.63;;
1649;SDS011;822;53.670;8.676;2023-04-06T01:51:52;3.30;;;3.00;;
1649;SDS011;822;53.670;8.676;2023-04-06T01:54:20;2.50;;;2.30;;
1649;SDS011;822;53.670;8.676;2023-04-06T01:56:48;2.50;;;2.30;;
1649;SDS011;822;53.670;8.676;2023-04-06T01:59:17;3.23;;;3.03;;
1649;SDS011;822;53.670;8.676;2023-04-06T02:01:44;4.27;;;3.80;;
1649;SDS011;822;53.670;8.676;2023-04-06T02:04:11;3.27;;;3.07;;
1649;SDS011;822;53.670;8.676;2023-04-06T02:06:39;2.27;;;2.07;;
1649;SDS011;822;53.670;8.676;2023-04-06T02:09:06;3.47;;;2.90;;
1649;SDS011;822;53.670;8.676;2023-04-06T02:11:33;3.03;;;2.83;;
1649;SDS011;822;53.670;8.676;2023-04-06T02:14:02;2.77;;;2.60;;
1649;SDS011;822;53.670;8.676;2023-04-06T02:16:30;9.97;;;4.70;;
1649;SDS011;822;53.670;8.676;2023-04-06T02:18:57;2.97;;;2.77;;
1649;SDS011;822;53.670;8.676;2023-04-06T02:21:24;5.27;;;3.03;;
1649;SDS011;822;53.670;8.676;2023-04-06T02:23:51;3.90;;;2.77;;
1649;SDS011;822;53.670;8.676;2023-04-06T02:26:19;1.97;;;1.87;;
1649;SDS011;822;53.670;8.676;2023-04-06T02:28:46;4.50;;;3.90;;
1649;SDS011;822;53.670;8.676;2023-04-06T02:31:18;3.80;;;3.10;;
1649;SDS011;822;53.670;8.676;2023-04-06T02:33:45;2.67;;;2.50;;
1649;SDS011;822;53.670;8.676;2023-04-06T02:36:12;2.97;;;2.70;;
1649;SDS011;822;53.670;8.676;2023-04-06T02:38:39;4.27;;;3.90;;
1649;SDS011;822;53.670;8.676;2023-04-06T02:41:07;3.07;;;2.37;;
1649;SDS011;822;53.670;8.676;2023-04-06T02:43:34;3.97;;;2.53;;
1649;SDS011;822;53.670;8.676;2023-04-06T02:46:01;3.23;;;3.10;;
1649;SDS011;822;53.670;8.676;2023-04-06T02:48:29;2.63;;;2.43;;
1649;SDS011;822;53.670;8.676;2023-04-06T02:50:56;4.93;;;3.60;;
1649;SDS011;822;53.670;8.676;2023-04-06T02:53:24;14.03;;;2.97;;
1649;SDS011;822;53.670;8.676;2023-04-06T02:55:54;2.50;;;2.30;;
1649;SDS011;822;53.670;8.676;2023-04-06T02:58:21;3.60;;;3.30;;
1649;SDS011;822;53.670;8.676;2023-04-06T03:00:48;4.50;;;2.13;;
1649;SDS011;822;53.670;8.676;2023-04-06T03:03:15;3.70;;;3.50;;
1649;SDS011;822;53.670;8.676;2023-04-06T03:05:44;2.07;;;1.93;;
1649;SDS011;822;53.670;8.676;2023-04-06T03:08:12;3.33;;;3.10;;
1649;SDS011;822;53.670;8.676;2023-04-06T03:10:39;7.37;;;3.40;;
1649;SDS011;822;53.670;8.676;2023-04-06T03:13:06;2.13;;;2.03;;
1649;SDS011;822;53.670;8.676;2023-04-06T03:15:33;2.63;;;2.43;;
1649;SDS011;822;53.670;8.676;2023-04-06T03:18:01;2.40;;;2.20;;
1649;SDS011;822;53.670;8.676;2023-04-06T03:20:28;2.67;;;2.50;;
1649;SDS011;822;53.670;8.676;2023-04-06T03:22:56;2.20;;;2.10;;
1649;SDS011;822;53.670;8.676;2023-04-06T03:25:23;2.20;;;2.10;;
1649;SDS011;822;53.670;8.676;2023-04-06T03:27:50;2.20;;;2.13;;
1649;SDS011;822;53.670;8.676;2023-04-06T03:30:17;2.90;;;2.70;;
1649;SDS011;822;53.670;8.676;2023-04-06T03:32:45;2.10;;;1.80;;
1649;SDS011;822;53.670;8.676;2023-04-06T03:35:12;2.80;;;2.60;;
1649;SDS011;822;53.670;8.676;2023-04-06T03:37:39;2.60;;;2.40;;
1649;SDS011;822;53.670;8.676;2023-04-06T03:40:08;3.20;;;2.93;;
1649;SDS011;822;53.670;8.676;2023-04-06T03:42:36;2.80;;;2.60;;
1649;SDS011;822;53.670;8.676;2023-04-06T03:45:03;2.37;;;2.17;;
1649;SDS011;822;53.670;8.676;2023-04-06T03:47:31;3.17;;;2.97;;
1649;SDS011;822;53.670;8.676;2023-04-06T03:49:58;2.93;;;2.70;;
1649;SDS011;822;53.670;8.676;2023-04-06T03:52:25;2.83;;;2.50;;
1649;SDS011;822;53.670;8.676;2023-04-06T03:54:52;2.80;;;2.57;;
1649;SDS011;822;53.670;8.676;2023-04-06T03:57:20;2.70;;;2.50;;
1649;SDS011;822;53.670;8.676;2023-04-06T03:59:47;2.30;;;1.80;;
1649;SDS011;822;53.670;8.676;2023-04-06T04:02:14;3.83;;;3.50;;
1649;SDS011;822;53.670;8.676;2023-04-06T04:04:41;3.13;;;2.93;;
1649;SDS011;822;53.670;8.676;2023-04-06T04:07:09;2.60;;;2.40;;
1649;SDS011;822;53.670;8.676;2023-04-06T04:09:38;4.67;;;3.83;;
1649;SDS011;822;53.670;8.676;2023-04-06T04:12:05;3.80;;;3.30;;
1649;SDS011;822;53.670;8.676;2023-04-06T04:14:36;3.70;;;3.40;;
1649;SDS011;822;53.670;8.676;2023-04-06T04:17:03;9.23;;;3.37;;
1649;SDS011;822;53.670;8.676;2023-04-06T04:19:30;7.93;;;4.73;;
1649;SDS011;822;53.670;8.676;2023-04-06T04:21:57;4.07;;;3.83;;
1649;SDS011;822;53.670;8.676;2023-04-06T04:24:24;6.93;;;4.87;;
1649;SDS011;822;53.670;8.676;2023-04-06T04:26:52;4.80;;;4.10;;
1649;SDS011;822;53.670;8.676;2023-04-06T04:29:19;3.70;;;3.47;;
1649;SDS011;822;53.670;8.676;2023-04-06T04:31:48;3.93;;;2.77;;
1649;SDS011;822;53.670;8.676;2023-04-06T04:34:17;3.30;;;2.40;;
1649;SDS011;822;53.670;8.676;2023-04-06T04:36:45;2.43;;;2.23;;
1649;SDS011;822;53.670;8.676;2023-04-06T04:39:13;3.77;;;3.47;;
1649;SDS011;822;53.670;8.676;2023-04-06T04:41:40;3.67;;;3.37;;
1649;SDS011;822;53.670;8.676;2023-04-06T04:44:07;3.23;;;2.50;;
1649;SDS011;822;53.670;8.676;2023-04-06T04:46:36;5.40;;;3.73;;
1649;SDS011;822;53.670;8.676;2023-04-06T04:49:05;1.90;;;1.80;;
1649;SDS011;822;53.670;8.676;2023-04-06T04:51:32;4.13;;;3.80;;
1649;SDS011;822;53.670;8.676;2023-04-06T04:53:59;4.27;;;3.87;;
1649;SDS011;822;53.670;8.676;2023-04-06T04:56:26;3.40;;;2.60;;
1649;SDS011;822;53.670;8.676;2023-04-06T05:01:28;4.17;;;3.80;;
1649;SDS011;822;53.670;8.676;2023-04-06T05:03:55;3.13;;;2.93;;
1649;SDS011;822;53.670;8.676;2023-04-06T05:06:24;2.97;;;2.87;;
1649;SDS011;822;53.670;8.676;2023-04-06T05:08:51;4.07;;;3.77;;
1649;SDS011;822;53.670;8.676;2023-04-06T05:11:18;3.47;;;3.27;;
1649;SDS011;822;53.670;8.676;2023-04-06T05:13:46;3.40;;;3.20;;
1649;SDS011;822;53.670;8.676;2023-04-06T05:16:13;5.80;;;5.20;;
1649;SDS011;822;53.670;8.676;2023-04-06T05:18:40;4.37;;;4.00;;
1649;SDS011;822;53.670;8.676;2023-04-06T05:21:07;2.70;;;2.50;;
1649;SDS011;822;53.670;8.676;2023-04-06T05:23:37;4.00;;;3.67;;
1649;SDS011;822;53.670;8.676;2023-04-06T05:26:04;4.03;;;3.47;;
1649;SDS011;822;53.670;8.676;2023-04-06T05:28:31;4.13;;;3.80;;
1649;SDS011;822;53.670;8.676;2023-04-06T05:30:59;2.33;;;2.17;;
1649;SDS011;822;53.670;8.676;2023-04-06T05:33:29;5.23;;;3.83;;
1649;SDS011;822;53.670;8.676;2023-04-06T05:35:56;5.37;;;3.60;;
1649;SDS011;822;53.670;8.676;2023-04-06T05:38:25;6.03;;;4.87;;
1649;SDS011;822;53.670;8.676;2023-04-06T05:40:55;3.60;;;3.30;;
1649;SDS011;822;53.670;8.676;2023-04-06T05:43:22;6.37;;;5.90;;
1649;SDS011;822;53.670;8.676;2023-04-06T05:45:49;6.33;;;5.20;;
1649;SDS011;822;53.670;8.676;2023-04-06T05:48:16;10.13;;;5.80;;
1649;SDS011;822;53.670;8.676;2023-04-06T05:50:47;9.30;;;5.10;;
1649;SDS011;822;53.670;8.676;2023-04-06T05:53:14;4.20;;;3.80;;
1649;SDS011;822;53.670;8.676;2023-04-06T05:55:42;5.73;;;4.70;;
1649;SDS011;822;53.670;8.676;2023-04-06T05:58:10;9.10;;;5.43;;
1649;SDS011;822;53.670;8.676;2023-04-06T06:00:37;5.77;;;5.20;;
1649;SDS011;822;53.670;8.676;2023-04-06T06:03:04;9.20;;;4.23;;
1649;SDS011;822;53.670;8.676;2023-04-06T06:05:33;8.30;;;5.47;;
1649;SDS011;822;53.670;8.676;2023-04-06T06:08:00;6.53;;;5.90;;
1649;SDS011;822;53.670;8.676;2023-04-06T06:10:27;7.43;;;6.33;;
1649;SDS011;822;53.670;8.676;2023-04-06T06:12:58;8.57;;;6.90;;
1649;SDS011;822;53.670;8.676;2023-04-06T06:15:26;5.03;;;4.53;;
1649;SDS011;822;53.670;8.676;2023-04-06T06:17:53;5.97;;;5.40;;
1649;SDS011;822;53.670;8.676;2023-04-06T06:20:22;5.50;;;5.00;;
1649;SDS011;822;53.670;8.676;2023-04-06T06:22:50;7.83;;;7.10;;
1649;SDS011;822;53.670;8.676;2023-04-06T06:25:17;6.77;;;4.97;;
1649;SDS011;822;53.670;8.676;2023-04-06T06:27:44;8.13;;;7.17;;
1649;SDS011;822;53.670;8.676;2023-04-06T06:30:12;5.23;;;4.83;;
1649;SDS011;822;53.670;8.676;2023-04-06T06:32:41;6.90;;;5.27;;
1649;SDS011;822;53.670;8.676;2023-04-06T06:35:08;9.73;;;5.30;;
1649;SDS011;822;53.670;8.676;2023-04-06T06:37:35;10.97;;;8.20;;
1649;SDS011;822;53.670;8.676;2023-04-06T06:40:02;9.00;;;6.77;;
1649;SDS011;822;53.670;8.676;2023-04-06T06:42:30;6.40;;;5.33;;
1649;SDS011;822;53.670;8.676;2023-04-06T06:44:57;5.90;;;5.43;;
1649;SDS011;822;53.670;8.676;2023-04-06T06:47:24;10.40;;;6.27;;
1649;SDS011;822;53.670;8.676;2023-04-06T06:49:53;15.67;;;6.80;;
1649;SDS011;822;53.670;8.676;2023-04-06T06:52:21;7.80;;;6.70;;
1649;SDS011;822;53.670;8.676;2023-04-06T06:54:49;6.03;;;5.10;;
1649;SDS011;822;53.670;8.676;2023-04-06T06:57:16;6.50;;;4.40;;
1649;SDS011;822;53.670;8.676;2023-04-06T06:59:43;6.20;;;5.60;;
1649;SDS011;822;53.670;8.676;2023-04-06T07:02:10;10.50;;;6.70;;
1649;SDS011;822;53.670;8.676;2023-04-06T07:04:37;10.77;;;7.37;;
1649;SDS011;822;53.670;8.676;2023-04-06T07:07:06;10.07;;;6.93;;
1649;SDS011;822;53.670;8.676;2023-04-06T07:09:33;9.17;;;6.73;;
1649;SDS011;822;53.670;8.676;2023-04-06T07:12:01;6.17;;;5.40;;
1649;SDS011;822;53.670;8.676;2023-04-06T07:14:28;6.30;;;5.53;;
1649;SDS011;822;53.670;8.676;2023-04-06T07:16:55;7.60;;;5.93;;
1649;SDS011;822;53.670;8.676;2023-04-06T07:19:22;13.60;;;6.87;;
1649;SDS011;822;53.670;8.676;2023-04-06T07:21:49;7.03;;;5.47;;
1649;SDS011;822;53.670;8.676;2023-04-06T07:24:18;9.00;;;6.43;;
1649;SDS011;822;53.670;8.676;2023-04-06T07:26:45;7.50;;;6.13;;
1649;SDS011;822;53.670;8.676;2023-04-06T07:29:12;6.07;;;5.57;;
1649;SDS011;822;53.670;8.676;2023-04-06T07:31:39;9.50;;;5.20;;
1649;SDS011;822;53.670;8.676;2023-04-06T07:34:06;7.77;;;4.90;;
1649;SDS011;822;53.670;8.676;2023-04-06T07:36:33;8.57;;;6.07;;
1649;SDS011;822;53.670;8.676;2023-04-06T07:39:00;7.17;;;6.40;;
1649;SDS011;822;53.670;8.676;2023-04-06T07:41:29;6.00;;;5.40;;
1649;SDS011;822;53.670;8.676;2023-04-06T07:43:56;5.73;;;4.93;;
1649;SDS011;822;53.670;8.676;2023-04-06T07:46:23;4.47;;;4.00;;
1649;SDS011;822;53.670;8.676;2023-04-06T07:48:50;6.93;;;4.80;;
1649;SDS011;822;53.670;8.676;2023-04-06T07:51:17;4.80;;;4.10;;
1649;SDS011;822;53.670;8.676;2023-04-06T07:53:47;6.37;;;4.50;;
1649;SDS011;822;53.670;8.676;2023-04-06T07:56:14;5.07;;;3.50;;
1649;SDS011;822;53.670;8.676;2023-04-06T07:58:43;6.20;;;4.20;;
1649;SDS011;822;53.670;8.676;2023-04-06T08:01:16;6.43;;;3.37;;
1649;SDS011;822;53.670;8.676;2023-04-06T08:03:43;5.00;;;4.03;;
1649;SDS011;822;53.670;8.676;2023-04-06T08:06:10;3.57;;;3.27;;
1649;SDS011;822;53.670;8.676;2023-04-06T08:08:38;3.47;;;3.13;;
1649;SDS011;822;53.670;8.676;2023-04-06T08:11:05;3.40;;;3.10;;
1649;SDS011;822;53.670;8.676;2023-04-06T08:13:33;4.00;;;3.10;;
1649;SDS011;822;53.670;8.676;2023-04-06T08:16:01;3.77;;;2.70;;
1649;SDS011;822;53.670;8.676;2023-04-06T08:18:32;3.43;;;2.70;;
1649;SDS011;822;53.670;8.676;2023-04-06T08:20:59;3.47;;;3.00;;
1649;SDS011;822;53.670;8.676;2023-04-06T08:23:27;4.87;;;3.10;;
1649;SDS011;822;53.670;8.676;2023-04-06T08:25:54;4.80;;;3.00;;
1649;SDS011;822;53.670;8.676;2023-04-06T08:28:21;5.10;;;2.50;;
1649;SDS011;822;53.670;8.676;2023-04-06T08:30:48;3.07;;;2.40;;
1649;SDS011;822;53.670;8.676;2023-04-06T08:33:17;4.93;;;3.33;;
1649;SDS011;822;53.670;8.676;2023-04-06T08:35:44;3.97;;;2.50;;
1649;SDS011;822;53.670;8.676;2023-04-06T08:38:11;4.73;;;3.27;;
1649;SDS011;822;53.670;8.676;2023-04-06T08:40:41;3.03;;;2.70;;
1649;SDS011;822;53.670;8.676;2023-04-06T08:43:13;2.50;;;2.30;;
1649;SDS011;822;53.670;8.676;2023-04-06T08:45:43;2.93;;;2.23;;
1649;SDS011;822;53.670;8.676;2023-04-06T08:48:11;2.97;;;2.13;;
1649;SDS011;822;53.670;8.676;2023-04-06T08:50:40;3.57;;;2.77;;
1649;SDS011;822;53.670;8.676;2023-04-06T08:53:08;2.70;;;2.50;;
1649;SDS011;822;53.670;8.676;2023-04-06T08:55:37;2.70;;;2.50;;
1649;SDS011;822;53.670;8.676;2023-04-06T08:58:06;3.83;;;2.40;;
1649;SDS011;822;53.670;8.676;2023-04-06T09:00:36;2.57;;;2.37;;
1649;SDS011;822;53.670;8.676;2023-04-06T09:03:04;3.30;;;2.90;;
1649;SDS011;822;53.670;8.676;2023-04-06T09:05:33;2.27;;;2.17;;
1649;SDS011;822;53.670;8.676;2023-04-06T09:08:02;2.57;;;2.37;;
1649;SDS011;822;53.670;8.676;2023-04-06T09:10:30;2.10;;;2.00;;
1649;SDS011;822;53.670;8.676;2023-04-06T09:13:05;2.50;;;2.23;;
1649;SDS011;822;53.670;8.676;2023-04-06T09:15:36;3.50;;;3.20;;
1649;SDS011;822;53.670;8.676;2023-04-06T09:18:14;4.73;;;2.00;;
1649;SDS011;822;53.670;8.676;2023-04-06T09:20:58;3.00;;;2.77;;
1649;SDS011;822;53.670;8.676;2023-04-06T09:23:28;2.23;;;2.10;;
1649;SDS011;822;53.670;8.676;2023-04-06T09:26:05;3.20;;;2.80;;
1649;SDS011;822;53.670;8.676;2023-04-06T09:28:43;2.57;;;2.37;;
1649;SDS011;822;53.670;8.676;2023-04-06T09:31:13;2.43;;;2.27;;
1649;SDS011;822;53.670;8.676;2023-04-06T09:33:41;4.00;;;3.00;;
1649;SDS011;822;53.670;8.676;2023-04-06T09:36:13;5.00;;;2.83;;
1649;SDS011;822;53.670;8.676;2023-04-06T09:38:52;2.57;;;2.37;;
1649;SDS011;822;53.670;8.676;2023-04-06T09:41:21;3.00;;;2.80;;
1649;SDS011;822;53.670;8.676;2023-04-06T09:43:50;3.67;;;3.37;;
1649;SDS011;822;53.670;8.676;2023-04-06T09:46:17;2.87;;;2.67;;
1649;SDS011;822;53.670;8.676;2023-04-06T09:48:49;3.53;;;3.10;;
1649;SDS011;822;53.670;8.676;2023-04-06T09:51:17;3.20;;;3.00;;
1649;SDS011;822;53.670;8.676;2023-04-06T09:53:47;3.03;;;2.83;;
1649;SDS011;822;53.670;8.676;2023-04-06T09:56:20;3.60;;;3.30;;
1649;SDS011;822;53.670;8.676;2023-04-06T09:58:54;3.80;;;3.20;;
1649;SDS011;822;53.670;8.676;2023-04-06T10:01:28;4.57;;;3.07;;
1649;SDS011;822;53.670;8.676;2023-04-06T10:04:01;3.63;;;3.33;;
1649;SDS011;822;53.670;8.676;2023-04-06T10:06:37;3.00;;;2.63;;
1649;SDS011;822;53.670;8.676;2023-04-06T10:09:06;4.03;;;3.63;;
1649;SDS011;822;53.670;8.676;2023-04-06T10:11:34;3.50;;;3.20;;
1649;SDS011;822;53.670;8.676;2023-04-06T10:14:01;3.30;;;3.10;;
1649;SDS011;822;53.670;8.676;2023-04-06T10:16:28;3.93;;;3.63;;
1649;SDS011;822;53.670;8.676;2023-04-06T10:18:57;4.13;;;3.60;;
1649;SDS011;822;53.670;8.676;2023-04-06T10:21:28;3.13;;;2.93;;
1649;SDS011;822;53.670;8.676;2023-04-06T10:23:58;3.63;;;3.33;;
1649;SDS011;822;53.670;8.676;2023-04-06T10:26:28;3.07;;;2.87;;
1649;SDS011;822;53.670;8.676;2023-04-06T10:29:01;3.67;;;3.37;;
1649;SDS011;822;53.670;8.676;2023-04-06T10:31:29;3.90;;;3.60;;
1649;SDS011;822;53.670;8.676;2023-04-06T10:34:01;3.20;;;2.90;;
1649;SDS011;822;53.670;8.676;2023-04-06T10:36:33;4.20;;;3.90;;
1649;SDS011;822;53.670;8.676;2023-04-06T10:39:01;3.90;;;3.60;;
1649;SDS011;822;53.670;8.676;2023-04-06T10:41:34;3.30;;;3.10;;
1649;SDS011;822;53.670;8.676;2023-04-06T10:44:02;3.83;;;3.53;;
1649;SDS011;822;53.670;8.676;2023-04-06T10:46:30;4.13;;;3.40;;
1649;SDS011;822;53.670;8.676;2023-04-06T10:49:08;5.27;;;4.87;;
1649;SDS011;822;53.670;8.676;2023-04-06T10:51:37;4.40;;;4.00;;
1649;SDS011;822;53.670;8.676;2023-04-06T10:54:05;3.60;;;3.30;;
1649;SDS011;822;53.670;8.676;2023-04-06T10:56:36;4.93;;;4.27;;
1649;SDS011;822;53.670;8.676;2023-04-06T10:59:04;4.80;;;4.10;;
1649;SDS011;822;53.670;8.676;2023-04-06T11:01:32;4.93;;;4.50;;
1649;SDS011;822;53.670;8.676;2023-04-06T11:04:00;4.17;;;3.83;;
1649;SDS011;822;53.670;8.676;2023-04-06T11:06:28;4.77;;;4.37;;
1649;SDS011;822;53.670;8.676;2023-04-06T11:08:56;4.80;;;4.33;;
1649;SDS011;822;53.670;8.676;2023-04-06T11:11:24;4.67;;;4.27;;
1649;SDS011;822;53.670;8.676;2023-04-06T11:13:54;3.80;;;3.30;;
1649;SDS011;822;53.670;8.676;2023-04-06T11:16:23;4.70;;;4.30;;
1649;SDS011;822;53.670;8.676;2023-04-06T11:18:52;5.00;;;4.60;;
1649;SDS011;822;53.670;8.676;2023-04-06T11:21:31;3.90;;;3.60;;
1649;SDS011;822;53.670;8.676;2023-04-06T11:24:06;4.40;;;4.00;;
1649;SDS011;822;53.670;8.676;2023-04-06T11:26:42;6.23;;;5.30;;
1649;SDS011;822;53.670;8.676;2023-04-06T11:29:14;4.60;;;4.03;;
1649;SDS011;822;53.670;8.676;2023-04-06T11:31:46;4.80;;;4.40;;
1649;SDS011;822;53.670;8.676;2023-04-06T11:34:16;4.97;;;3.70;;
1649;SDS011;822;53.670;8.676;2023-04-06T11:36:44;4.40;;;4.00;;
1649;SDS011;822;53.670;8.676;2023-04-06T11:39:19;3.97;;;3.60;;
1649;SDS011;822;53.670;8.676;2023-04-06T11:41:48;4.33;;;3.93;;
1649;SDS011;822;53.670;8.676;2023-04-06T11:44:26;4.30;;;3.90;;
1649;SDS011;822;53.670;8.676;2023-04-06T11:46:56;3.07;;;2.80;;
1649;SDS011;822;53.670;8.676;2023-04-06T11:49:26;6.27;;;4.87;;
1649;SDS011;822;53.670;8.676;2023-04-06T11:51:54;5.23;;;4.73;;
1649;SDS011;822;53.670;8.676;2023-04-06T11:54:29;6.53;;;5.73;;
1649;SDS011;822;53.670;8.676;2023-04-06T11:56:58;5.67;;;5.10;;
1649;SDS011;822;53.670;8.676;2023-04-06T11:59:33;7.30;;;5.73;;
1649;SDS011;822;53.670;8.676;2023-04-06T12:02:05;7.20;;;6.50;;
1649;SDS011;822;53.670;8.676;2023-04-06T12:04:32;6.00;;;5.40;;
1649;SDS011;822;53.670;8.676;2023-04-06T12:07:00;6.10;;;5.40;;
1649;SDS011;822;53.670;8.676;2023-04-06T12:09:27;6.43;;;5.63;;
1649;SDS011;822;53.670;8.676;2023-04-06T12:11:55;5.37;;;4.87;;
1649;SDS011;822;53.670;8.676;2023-04-06T12:14:22;5.90;;;5.30;;
1649;SDS011;822;53.670;8.676;2023-04-06T12:16:50;4.93;;;4.50;;
1649;SDS011;822;53.670;8.676;2023-04-06T12:19:17;7.10;;;6.03;;
1649;SDS011;822;53.670;8.676;2023-04-06T12:21:44;5.47;;;4.97;;
1649;SDS011;822;53.670;8.676;2023-04-06T12:24:11;6.20;;;5.60;;
1649;SDS011;822;53.670;8.676;2023-04-06T12:26:38;5.77;;;5.17;;
1649;SDS011;822;53.670;8.676;2023-04-06T12:29:09;7.47;;;5.10;;
1649;SDS011;822;53.670;8.676;2023-04-06T12:31:38;6.07;;;5.13;;
1649;SDS011;822;53.670;8.676;2023-04-06T12:34:07;6.40;;;5.80;;
1649;SDS011;822;53.670;8.676;2023-04-06T12:36:34;5.70;;;4.77;;
1649;SDS011;822;53.670;8.676;2023-04-06T12:39:02;5.70;;;5.20;;
1649;SDS011;822;53.670;8.676;2023-04-06T12:41:30;6.17;;;5.57;;
1649;SDS011;822;53.670;8.676;2023-04-06T12:43:57;6.43;;;5.20;;
1649;SDS011;822;53.670;8.676;2023-04-06T12:46:25;4.80;;;4.40;;
1649;SDS011;822;53.670;8.676;2023-04-06T12:48:54;5.53;;;5.10;;
1649;SDS011;822;53.670;8.676;2023-04-06T12:51:24;5.37;;;4.87;;
1649;SDS011;822;53.670;8.676;2023-04-06T12:53:52;6.50;;;4.77;;
1649;SDS011;822;53.670;8.676;2023-04-06T12:56:19;5.43;;;4.93;;
1649;SDS011;822;53.670;8.676;2023-04-06T12:58:47;5.27;;;4.77;;
1649;SDS011;822;53.670;8.676;2023-04-06T13:01:14;5.23;;;4.40;;
1649;SDS011;822;53.670;8.676;2023-04-06T13:03:42;5.57;;;4.83;;
1649;SDS011;822;53.670;8.676;2023-04-06T13:06:09;5.27;;;4.60;;
1649;SDS011;822;53.670;8.676;2023-04-06T13:08:39;5.77;;;5.27;;
1649;SDS011;822;53.670;8.676;2023-04-06T13:11:06;5.80;;;5.20;;
1649;SDS011;822;53.670;8.676;2023-04-06T13:13:34;4.87;;;4.47;;
1649;SDS011;822;53.670;8.676;2023-04-06T13:16:02;4.83;;;4.43;;
1649;SDS011;822;53.670;8.676;2023-04-06T13:18:31;4.50;;;4.10;;
1649;SDS011;822;53.670;8.676;2023-04-06T13:20:59;4.17;;;3.77;;
1649;SDS011;822;53.670;8.676;2023-04-06T13:23:26;5.00;;;4.50;;
1649;SDS011;822;53.670;8.676;2023-04-06T13:25:58;5.93;;;5.33;;
1649;SDS011;822;53.670;8.676;2023-04-06T13:28:26;5.03;;;4.60;;
1649;SDS011;822;53.670;8.676;2023-04-06T13:30:54;7.03;;;4.50;;
1649;SDS011;822;53.670;8.676;2023-04-06T13:33:22;5.20;;;4.70;;
1649;SDS011;822;53.670;8.676;2023-04-06T13:35:55;5.83;;;5.00;;
1649;SDS011;822;53.670;8.676;2023-04-06T13:38:22;5.17;;;4.70;;
1649;SDS011;822;53.670;8.676;2023-04-06T13:40:50;4.73;;;4.33;;
1649;SDS011;822;53.670;8.676;2023-04-06T13:43:18;4.67;;;4.27;;
1649;SDS011;822;53.670;8.676;2023-04-06T13:45:48;4.43;;;4.03;;
1649;SDS011;822;53.670;8.676;2023-04-06T13:48:19;4.43;;;3.97;;
1649;SDS011;822;53.670;8.676;2023-04-06T13:50:46;5.17;;;4.67;;
1649;SDS011;822;53.670;8.676;2023-04-06T13:53:13;4.50;;;4.20;;
1649;SDS011;822;53.670;8.676;2023-04-06T13:55:41;5.20;;;4.77;;
1649;SDS011;822;53.670;8.676;2023-04-06T13:58:08;3.90;;;3.60;;
1649;SDS011;822;53.670;8.676;2023-04-06T14:00:36;4.97;;;4.57;;
1649;SDS011;822;53.670;8.676;2023-04-06T14:03:03;4.90;;;4.40;;
1649;SDS011;822;53.670;8.676;2023-04-06T14:05:32;3.90;;;3.60;;
1649;SDS011;822;53.670;8.676;2023-04-06T14:07:59;5.33;;;4.93;;
1649;SDS011;822;53.670;8.676;2023-04-06T14:10:27;4.90;;;4.00;;
1649;SDS011;822;53.670;8.676;2023-04-06T14:12:54;5.40;;;5.00;;
1649;SDS011;822;53.670;8.676;2023-04-06T14:15:22;3.87;;;3.57;;
1649;SDS011;822;53.670;8.676;2023-04-06T14:17:50;4.73;;;4.30;;
1649;SDS011;822;53.670;8.676;2023-04-06T14:20:17;4.90;;;4.50;;
1649;SDS011;822;53.670;8.676;2023-04-06T14:22:46;4.33;;;3.90;;
1649;SDS011;822;53.670;8.676;2023-04-06T14:25:14;3.50;;;3.20;;
1649;SDS011;822;53.670;8.676;2023-04-06T14:27:42;3.40;;;3.20;;
1649;SDS011;822;53.670;8.676;2023-04-06T14:30:09;3.90;;;3.50;;
1649;SDS011;822;53.670;8.676;2023-04-06T14:32:37;3.90;;;3.60;;
1649;SDS011;822;53.670;8.676;2023-04-06T14:35:06;4.37;;;3.97;;
1649;SDS011;822;53.670;8.676;2023-04-06T14:37:34;4.63;;;3.70;;
1649;SDS011;822;53.670;8.676;2023-04-06T14:40:01;3.97;;;3.57;;
1649;SDS011;822;53.670;8.676;2023-04-06T14:42:28;3.60;;;3.30;;
1649;SDS011;822;53.670;8.676;2023-04-06T14:44:55;4.17;;;3.47;;
1649;SDS011;822;53.670;8.676;2023-04-06T14:47:22;4.50;;;4.10;;
1649;SDS011;822;53.670;8.676;2023-04-06T14:49:50;4.20;;;3.80;;
1649;SDS011;822;53.670;8.676;2023-04-06T14:52:19;3.87;;;3.47;;
1649;SDS011;822;53.670;8.676;2023-04-06T14:54:46;3.33;;;3.03;;
1649;SDS011;822;53.670;8.676;2023-04-06T14:57:14;3.13;;;2.90;;
1649;SDS011;822;53.670;8.676;2023-04-06T14:59:41;4.10;;;3.70;;
1649;SDS011;822;53.670;8.676;2023-04-06T15:02:08;4.07;;;3.67;;
1649;SDS011;822;53.670;8.676;2023-04-06T15:04:35;3.53;;;3.23;;
1649;SDS011;822;53.670;8.676;2023-04-06T15:07:02;3.60;;;3.30;;
1649;SDS011;822;53.670;8.676;2023-04-06T15:09:30;4.10;;;3.70;;
1649;SDS011;822;53.670;8.676;2023-04-06T15:11:57;4.60;;;4.13;;
1649;SDS011;822;53.670;8.676;2023-04-06T15:14:25;3.97;;;3.47;;
1649;SDS011;822;53.670;8.676;2023-04-06T15:16:52;3.33;;;3.03;;
1649;SDS011;822;53.670;8.676;2023-04-06T15:19:19;3.23;;;2.97;;
1649;SDS011;822;53.670;8.676;2023-04-06T15:21:47;3.40;;;3.10;;
1649;SDS011;822;53.670;8.676;2023-04-06T15:24:14;4.17;;;3.77;;
1649;SDS011;822;53.670;8.676;2023-04-06T15:26:42;4.17;;;3.77;;
1649;SDS011;822;53.670;8.676;2023-04-06T15:29:10;4.00;;;3.70;;
1649;SDS011;822;53.670;8.676;2023-04-06T15:31:37;4.40;;;4.00;;
1649;SDS011;822;53.670;8.676;2023-04-06T15:34:05;4.63;;;3.33;;
1649;SDS011;822;53.670;8.676;2023-04-06T15:36:33;4.50;;;4.10;;
1649;SDS011;822;53.670;8.676;2023-04-06T15:39:00;4.03;;;3.63;;